createdAt,value
2018-04-22T00:00:53.901Z,96.30
2018-04-22T00:01:53.097Z,95.91
2018-04-22T00:02:52.861Z,95.32
2018-04-22T00:03:52.961Z,95.32
2018-04-22T00:04:52.868Z,95.62
2018-04-22T00:05:52.792Z,96.06
2018-04-22T00:06:53.294Z,95.81
2018-04-22T00:07:52.729Z,95.62
2018-04-22T00:08:53.052Z,95.76
2018-04-22T00:09:52.693Z,96.25
2018-04-22T00:10:52.753Z,94.89
2018-04-22T00:11:53.203Z,95.38
2018-04-22T00:12:52.648Z,94.70
2018-04-22T00:13:52.622Z,95.67
2018-04-22T00:14:53.175Z,94.60
2018-04-22T00:15:52.919Z,94.99
2018-04-22T00:16:52.482Z,95.38
2018-04-22T00:17:53.091Z,95.28
2018-04-22T00:18:52.565Z,94.40
2018-04-22T00:19:52.475Z,94.60
2018-04-22T00:20:54.045Z,94.40
2018-04-22T00:21:52.367Z,94.89
2018-04-22T00:22:52.932Z,94.70
2018-04-22T00:23:52.322Z,94.60
2018-04-22T00:24:52.293Z,94.50
2018-04-22T00:25:52.527Z,93.92
2018-04-22T00:26:52.245Z,94.60
2018-04-22T00:27:52.244Z,94.50
2018-04-22T00:28:52.363Z,94.40
2018-04-22T00:29:52.204Z,93.87
2018-04-22T00:30:52.183Z,94.11
2018-04-22T00:31:52.132Z,94.36
2018-04-22T00:32:52.157Z,94.26
2018-04-22T00:33:52.116Z,93.10
2018-04-22T00:34:52.317Z,93.29
2018-04-22T00:35:52.057Z,93.29
2018-04-22T00:36:52.517Z,93.29
2018-04-22T00:37:52.185Z,92.71
2018-04-22T00:38:52.167Z,92.61
2018-04-22T00:39:51.947Z,91.93
2018-04-22T00:40:51.986Z,92.41
2018-04-22T00:41:51.959Z,92.51
2018-04-22T00:42:51.884Z,92.71
2018-04-22T00:43:51.846Z,91.35
2018-04-22T00:44:52.002Z,91.64
2018-04-22T00:45:52.148Z,91.35
2018-04-22T00:46:51.827Z,91.35
2018-04-22T00:47:52.348Z,91.25
2018-04-22T00:48:51.736Z,90.67
2018-04-22T00:49:51.725Z,91.25
2018-04-22T00:50:51.759Z,91.64
2018-04-22T00:51:51.664Z,91.35
2018-04-22T00:52:51.784Z,91.44
2018-04-22T00:53:51.665Z,91.25
2018-04-22T00:54:51.591Z,91.35
2018-04-22T00:55:51.760Z,91.25
2018-04-22T00:56:51.622Z,91.35
2018-04-22T00:57:51.506Z,91.64
2018-04-22T00:58:51.481Z,90.67
2018-04-22T00:59:51.605Z,91.35
2018-04-22T01:00:51.451Z,90.28
2018-04-22T01:01:51.503Z,91.15
2018-04-22T01:02:51.923Z,91.25
2018-04-22T01:03:51.350Z,91.35
2018-04-22T01:04:51.325Z,91.64
2018-04-22T01:05:51.512Z,91.35
2018-04-22T01:06:51.537Z,90.47
2018-04-22T01:07:51.365Z,90.18
2018-04-22T01:08:51.227Z,89.69
2018-04-22T01:09:51.214Z,89.89
2018-04-22T01:10:51.202Z,90.33
2018-04-22T01:11:51.289Z,88.82
2018-04-22T01:12:51.365Z,89.26
2018-04-22T01:13:51.125Z,88.97
2018-04-22T01:14:51.238Z,89.84
2018-04-22T01:15:51.448Z,89.84
2018-04-22T01:16:51.096Z,89.84
2018-04-22T01:17:51.075Z,89.89
2018-04-22T01:18:51.145Z,89.59
2018-04-22T01:19:51.005Z,89.65
2018-04-22T01:20:50.991Z,90.04
2018-04-22T01:21:50.957Z,90.04
2018-04-22T01:22:50.908Z,89.65
2018-04-22T01:23:50.926Z,89.45
2018-04-22T01:24:50.849Z,89.75
2018-04-22T01:25:50.815Z,89.84
2018-04-22T01:26:50.842Z,89.26
2018-04-22T01:27:50.812Z,89.07
2018-04-22T01:28:50.865Z,89.36
2018-04-22T01:29:50.737Z,89.07
2018-04-22T01:30:50.711Z,88.78
2018-04-22T01:31:50.681Z,88.97
2018-04-22T01:32:50.680Z,88.29
2018-04-22T01:33:50.681Z,88.58
2018-04-22T01:34:50.612Z,87.51
2018-04-22T01:35:50.589Z,87.22
2018-04-22T01:36:50.537Z,87.03
2018-04-22T01:37:50.534Z,87.90
2018-04-22T01:38:50.494Z,87.51
2018-04-22T01:39:50.546Z,87.03
2018-04-22T01:40:50.457Z,87.22
2018-04-22T01:41:50.955Z,87.41
2018-04-22T01:42:50.420Z,87.32
2018-04-22T01:43:50.445Z,86.60
2018-04-22T01:44:50.352Z,87.12
2018-04-22T01:45:50.388Z,87.41
2018-04-22T01:46:50.303Z,86.30
2018-04-22T01:47:50.296Z,86.40
2018-04-22T01:48:50.250Z,86.01
2018-04-22T01:49:50.235Z,85.33
2018-04-22T01:50:50.253Z,84.75
2018-04-22T01:51:50.284Z,84.94
2018-04-22T01:52:50.153Z,84.56
2018-04-22T01:53:50.123Z,84.17
2018-04-22T01:54:50.110Z,84.66
2018-04-22T01:55:50.092Z,83.97
2018-04-22T01:56:50.151Z,83.20
2018-04-22T01:57:50.039Z,83.29
2018-04-22T01:58:50.018Z,82.42
2018-04-22T01:59:49.988Z,82.52
2018-04-22T02:00:49.948Z,82.23
2018-04-22T02:01:50.155Z,82.62
2018-04-22T02:02:49.920Z,82.52
2018-04-22T02:03:49.908Z,82.52
2018-04-22T02:04:49.872Z,82.42
2018-04-22T02:05:50.458Z,83.10
2018-04-22T02:06:49.918Z,83.10
2018-04-22T02:07:49.870Z,83.20
2018-04-22T02:08:49.763Z,83.00
2018-04-22T02:09:49.740Z,83.20
2018-04-22T02:10:50.301Z,82.52
2018-04-22T02:11:50.346Z,82.52
2018-04-22T02:12:50.198Z,82.03
2018-04-22T02:13:49.703Z,82.52
2018-04-22T02:14:49.655Z,83.29
2018-04-22T02:15:49.588Z,82.90
2018-04-22T02:16:49.610Z,82.71
2018-04-22T02:17:49.596Z,82.42
2018-04-22T02:18:49.576Z,83.00
2018-04-22T02:19:49.535Z,82.81
2018-04-22T02:20:49.484Z,82.13
2018-04-22T02:21:49.446Z,82.03
2018-04-22T02:22:49.595Z,81.93
2018-04-22T02:23:49.399Z,81.35
2018-04-22T02:24:49.426Z,81.35
2018-04-22T02:25:49.919Z,81.45
2018-04-22T02:26:49.332Z,81.55
2018-04-22T02:27:49.303Z,81.74
2018-04-22T02:28:49.375Z,81.55
2018-04-22T02:29:49.241Z,81.16
2018-04-22T02:30:49.209Z,78.83
2018-04-22T02:31:49.240Z,78.15
2018-04-22T02:32:49.174Z,78.34
2018-04-22T02:33:49.301Z,78.92
2018-04-22T02:34:49.153Z,78.44
2018-04-22T02:35:49.107Z,78.54
2018-04-22T02:36:49.084Z,78.15
2018-04-22T02:37:49.036Z,79.41
2018-04-22T02:38:49.160Z,79.80
2018-04-22T02:39:49.002Z,80.96
2018-04-22T02:40:48.991Z,81.06
2018-04-22T02:41:48.934Z,81.55
2018-04-22T02:42:49.059Z,82.13
2018-04-22T02:43:49.071Z,81.74
2018-04-22T02:44:49.086Z,81.16
2018-04-22T02:45:48.843Z,81.45
2018-04-22T02:46:48.835Z,81.06
2018-04-22T02:47:48.785Z,81.06
2018-04-22T02:48:48.896Z,81.16
2018-04-22T02:49:48.766Z,79.02
2018-04-22T02:50:49.254Z,78.54
2018-04-22T02:51:48.713Z,78.83
2018-04-22T02:52:49.208Z,78.44
2018-04-22T02:53:49.313Z,78.44
2018-04-22T02:54:48.639Z,78.73
2018-04-22T02:55:48.622Z,78.92
2018-04-22T02:56:48.570Z,79.61
2018-04-22T02:57:48.521Z,80.58
2018-04-22T02:58:49.136Z,80.29
2018-04-22T02:59:48.491Z,79.61
2018-04-22T03:00:48.455Z,80.58
2018-04-22T03:01:48.489Z,79.61
2018-04-22T03:02:48.470Z,78.73
2018-04-22T03:03:49.242Z,79.32
2018-04-22T03:04:48.874Z,78.54
2018-04-22T03:05:48.375Z,79.32
2018-04-22T03:06:48.905Z,79.02
2018-04-22T03:07:49.991Z,79.22
2018-04-22T03:08:48.483Z,79.02
2018-04-22T03:09:50.499Z,79.18
2018-04-22T03:10:48.755Z,79.47
2018-04-22T03:11:48.193Z,79.76
2018-04-22T03:12:48.141Z,78.69
2018-04-22T03:13:48.156Z,78.44
2018-04-22T03:14:48.118Z,77.62
2018-04-22T03:15:48.266Z,77.62
2018-04-22T03:16:48.103Z,77.92
2018-04-22T03:17:48.046Z,78.02
2018-04-22T03:18:48.029Z,77.34
2018-04-22T03:19:47.987Z,76.95
2018-04-22T03:20:48.065Z,77.43
2018-04-22T03:21:49.849Z,77.72
2018-04-22T03:22:47.905Z,77.72
2018-04-22T03:23:47.913Z,77.14
2018-04-22T03:24:47.945Z,77.04
2018-04-22T03:25:48.369Z,76.27
2018-04-22T03:26:47.849Z,76.46
2018-04-22T03:27:47.848Z,76.07
2018-04-22T03:28:47.804Z,75.88
2018-04-22T03:29:47.765Z,75.40
2018-04-22T03:30:47.884Z,75.20
2018-04-22T03:31:47.732Z,74.97
2018-04-22T03:32:47.700Z,74.33
2018-04-22T03:33:47.643Z,74.58
2018-04-22T03:34:47.627Z,74.58
2018-04-22T03:35:47.594Z,74.39
2018-04-22T03:36:48.142Z,74.39
2018-04-22T03:37:47.547Z,73.61
2018-04-22T03:38:47.512Z,73.42
2018-04-22T03:39:47.516Z,73.52
2018-04-22T03:40:47.452Z,73.52
2018-04-22T03:41:47.456Z,73.22
2018-04-22T03:42:47.509Z,73.22
2018-04-22T03:43:47.405Z,73.13
2018-04-22T03:44:47.360Z,73.32
2018-04-22T03:45:47.337Z,73.71
2018-04-22T03:46:47.661Z,73.52
2018-04-22T03:47:47.879Z,73.13
2018-04-22T03:48:47.351Z,72.74
2018-04-22T03:49:47.247Z,72.45
2018-04-22T03:50:48.188Z,72.55
2018-04-22T03:51:47.162Z,71.77
2018-04-22T03:52:47.191Z,71.48
2018-04-22T03:53:47.195Z,71.44
2018-04-22T03:54:47.112Z,70.31
2018-04-22T03:55:47.078Z,70.09
2018-04-22T03:56:47.067Z,69.93
2018-04-22T03:57:47.070Z,70.09
2018-04-22T03:58:47.104Z,69.79
2018-04-22T03:59:46.988Z,69.50
2018-04-22T04:00:46.957Z,69.99
2018-04-22T04:01:46.946Z,69.31
2018-04-22T04:02:46.914Z,68.63
2018-04-22T04:03:46.993Z,69.12
2018-04-22T04:04:46.840Z,69.12
2018-04-22T04:05:47.636Z,68.92
2018-04-22T04:06:48.160Z,69.15
2018-04-22T04:07:46.769Z,68.92
2018-04-22T04:08:46.848Z,69.31
2018-04-22T04:09:46.901Z,68.63
2018-04-22T04:10:46.833Z,68.82
2018-04-22T04:11:46.696Z,68.92
2018-04-22T04:12:46.676Z,68.92
2018-04-22T04:13:46.793Z,68.92
2018-04-22T04:14:46.891Z,68.24
2018-04-22T04:15:46.901Z,68.24
2018-04-22T04:16:46.919Z,68.73
2018-04-22T04:17:47.157Z,68.63
2018-04-22T04:18:47.353Z,68.15
2018-04-22T04:19:46.561Z,68.05
2018-04-22T04:20:46.870Z,67.76
2018-04-22T04:21:46.476Z,67.27
2018-04-22T04:22:46.438Z,67.47
2018-04-22T04:23:46.428Z,67.27
2018-04-22T04:24:46.882Z,67.57
2018-04-22T04:25:46.680Z,67.76
2018-04-22T04:26:46.315Z,67.47
2018-04-22T04:27:46.326Z,67.47
2018-04-22T04:28:46.946Z,67.37
2018-04-22T04:29:46.229Z,67.85
2018-04-22T04:30:46.207Z,67.72
2018-04-22T04:31:46.414Z,67.37
2018-04-22T04:32:46.155Z,67.57
2018-04-22T04:33:46.154Z,67.76
2018-04-22T04:34:46.244Z,67.47
2018-04-22T04:35:46.662Z,67.76
2018-04-22T04:36:46.091Z,67.57
2018-04-22T04:37:46.005Z,67.37
2018-04-22T04:38:45.982Z,67.37
2018-04-22T04:39:46.483Z,67.18
2018-04-22T04:40:45.926Z,66.95
2018-04-22T04:41:46.483Z,66.85
2018-04-22T04:42:45.984Z,66.75
2018-04-22T04:43:46.046Z,66.79
2018-04-22T04:44:45.834Z,66.75
2018-04-22T04:45:47.981Z,66.85
2018-04-22T04:46:46.130Z,66.85
2018-04-22T04:47:45.779Z,66.85
2018-04-22T04:48:45.753Z,66.47
2018-04-22T04:49:45.728Z,66.47
2018-04-22T04:50:45.801Z,66.85
2018-04-22T04:51:48.818Z,66.95
2018-04-22T04:52:46.139Z,66.75
2018-04-22T04:53:45.608Z,66.99
2018-04-22T04:54:45.581Z,67.05
2018-04-22T04:55:45.694Z,66.85
2018-04-22T04:56:45.516Z,67.05
2018-04-22T04:57:46.216Z,67.14
2018-04-22T04:58:46.122Z,67.08
2018-04-22T04:59:46.136Z,66.66
2018-04-22T05:00:45.429Z,66.85
2018-04-22T05:01:45.520Z,67.05
2018-04-22T05:02:45.758Z,66.85
2018-04-22T05:03:45.508Z,66.85
2018-04-22T05:04:45.311Z,66.75
2018-04-22T05:05:45.411Z,66.66
2018-04-22T05:06:45.541Z,66.75
2018-04-22T05:07:45.236Z,66.75
2018-04-22T05:08:45.273Z,66.85
2018-04-22T05:09:45.287Z,66.75
2018-04-22T05:10:45.469Z,67.14
2018-04-22T05:11:45.164Z,66.75
2018-04-22T05:12:45.288Z,66.66
2018-04-22T05:13:45.254Z,66.75
2018-04-22T05:14:45.151Z,67.24
2018-04-22T05:15:45.053Z,67.72
2018-04-22T05:16:45.104Z,67.82
2018-04-22T05:17:45.787Z,67.82
2018-04-22T05:18:45.463Z,67.63
2018-04-22T05:19:45.200Z,67.53
2018-04-22T05:20:44.964Z,67.72
2018-04-22T05:21:45.164Z,67.72
2018-04-22T05:22:44.991Z,67.82
2018-04-22T05:23:44.846Z,67.24
2018-04-22T05:24:44.862Z,66.56
2018-04-22T05:25:45.002Z,66.56
2018-04-22T05:26:44.754Z,66.17
2018-04-22T05:27:44.735Z,66.56
2018-04-22T05:28:44.691Z,66.85
2018-04-22T05:29:44.685Z,66.85
2018-04-22T05:30:44.676Z,66.47
2018-04-22T05:31:44.723Z,66.08
2018-04-22T05:32:44.606Z,66.56
2018-04-22T05:33:44.584Z,66.17
2018-04-22T05:34:44.564Z,66.95
2018-04-22T05:35:44.508Z,67.14
2018-04-22T05:36:44.554Z,66.66
2018-04-22T05:37:44.475Z,66.66
2018-04-22T05:38:44.427Z,66.75
2018-04-22T05:39:44.425Z,66.56
2018-04-22T05:40:44.394Z,66.75
2018-04-22T05:41:44.365Z,66.75
2018-04-22T05:42:44.546Z,66.85
2018-04-22T05:43:44.314Z,66.95
2018-04-22T05:44:44.289Z,67.05
2018-04-22T05:45:44.270Z,66.56
2018-04-22T05:46:44.229Z,66.27
2018-04-22T05:47:44.316Z,65.30
2018-04-22T05:48:44.204Z,65.79
2018-04-22T05:49:44.144Z,65.89
2018-04-22T05:50:44.189Z,65.50
2018-04-22T05:51:44.102Z,65.89
2018-04-22T05:52:44.160Z,66.56
2018-04-22T05:53:44.064Z,66.27
2018-04-22T05:54:44.019Z,66.56
2018-04-22T05:55:44.000Z,66.66
2018-04-22T05:56:43.959Z,66.75
2018-04-22T05:57:44.054Z,66.37
2018-04-22T05:58:43.992Z,66.63
2018-04-22T05:59:43.882Z,66.85
2018-04-22T06:00:43.890Z,66.37
2018-04-22T06:01:43.830Z,66.85
2018-04-22T06:02:43.806Z,66.92
2018-04-22T06:03:43.901Z,66.43
2018-04-22T06:04:43.760Z,66.43
2018-04-22T06:05:43.732Z,66.82
2018-04-22T06:06:43.712Z,66.72
2018-04-22T06:07:43.725Z,66.92
2018-04-22T06:08:43.762Z,66.43
2018-04-22T06:09:43.640Z,66.63
2018-04-22T06:10:43.664Z,66.66
2018-04-22T06:11:43.616Z,66.63
2018-04-22T06:12:43.710Z,66.63
2018-04-22T06:13:43.587Z,66.34
2018-04-22T06:14:43.544Z,66.24
2018-04-22T06:15:43.467Z,66.47
2018-04-22T06:16:43.417Z,66.24
2018-04-22T06:17:43.418Z,66.72
2018-04-22T06:18:43.401Z,66.92
2018-04-22T06:19:43.515Z,66.37
2018-04-22T06:20:43.358Z,66.17
2018-04-22T06:21:43.316Z,66.85
2018-04-22T06:22:43.329Z,66.43
2018-04-22T06:23:43.281Z,66.75
2018-04-22T06:24:43.279Z,66.47
2018-04-22T06:25:43.233Z,66.43
2018-04-22T06:26:43.180Z,66.72
2018-04-22T06:27:43.166Z,66.92
2018-04-22T06:28:43.188Z,67.02
2018-04-22T06:29:43.149Z,66.92
2018-04-22T06:30:43.224Z,66.82
2018-04-22T06:31:43.048Z,67.21
2018-04-22T06:32:43.026Z,67.02
2018-04-22T06:33:43.023Z,67.21
2018-04-22T06:34:42.989Z,67.69
2018-04-22T06:35:43.042Z,67.21
2018-04-22T06:36:42.929Z,67.69
2018-04-22T06:37:42.901Z,66.95
2018-04-22T06:38:42.930Z,66.72
2018-04-22T06:39:42.856Z,66.92
2018-04-22T06:40:42.820Z,67.79
2018-04-22T06:41:42.856Z,67.60
2018-04-22T06:42:42.759Z,67.98
2018-04-22T06:43:42.800Z,67.60
2018-04-22T06:44:42.737Z,67.60
2018-04-22T06:45:42.698Z,67.88
2018-04-22T06:46:42.758Z,68.18
2018-04-22T06:47:42.624Z,68.27
2018-04-22T06:48:42.605Z,68.27
2018-04-22T06:49:42.614Z,67.79
2018-04-22T06:50:42.562Z,68.18
2018-04-22T06:51:42.627Z,67.50
2018-04-22T06:52:42.496Z,67.79
2018-04-22T06:53:42.465Z,67.98
2018-04-22T06:54:42.447Z,67.88
2018-04-22T06:55:42.433Z,67.98
2018-04-22T06:56:42.395Z,68.08
2018-04-22T06:57:42.434Z,67.79
2018-04-22T06:58:42.392Z,68.27
2018-04-22T06:59:42.333Z,67.79
2018-04-22T07:00:42.338Z,67.79
2018-04-22T07:01:42.288Z,68.08
2018-04-22T07:02:42.300Z,68.27
2018-04-22T07:03:42.224Z,68.27
2018-04-22T07:04:42.200Z,68.27
2018-04-22T07:05:42.166Z,68.08
2018-04-22T07:06:42.128Z,68.66
2018-04-22T07:07:42.224Z,68.66
2018-04-22T07:08:42.102Z,69.15
2018-04-22T07:09:42.070Z,68.85
2018-04-22T07:10:42.039Z,69.05
2018-04-22T07:11:42.000Z,68.85
2018-04-22T07:12:42.048Z,69.34
2018-04-22T07:13:42.063Z,69.43
2018-04-22T07:14:41.940Z,69.24
2018-04-22T07:15:41.918Z,69.53
2018-04-22T07:16:41.898Z,69.73
2018-04-22T07:17:41.830Z,70.11
2018-04-22T07:18:41.910Z,69.82
2018-04-22T07:19:42.618Z,69.53
2018-04-22T07:20:41.771Z,68.85
2018-04-22T07:21:41.753Z,69.24
2018-04-22T07:22:41.763Z,69.24
2018-04-22T07:23:41.790Z,70.01
2018-04-22T07:24:41.689Z,70.21
2018-04-22T07:25:41.643Z,70.40
2018-04-22T07:26:41.604Z,70.40
2018-04-22T07:27:41.605Z,70.11
2018-04-22T07:28:41.606Z,70.40
2018-04-22T07:29:41.523Z,70.79
2018-04-22T07:30:41.494Z,71.18
2018-04-22T07:31:41.483Z,70.79
2018-04-22T07:32:41.452Z,70.60
2018-04-22T07:33:41.438Z,70.50
2018-04-22T07:34:41.445Z,70.70
2018-04-22T07:35:41.384Z,70.21
2018-04-22T07:36:41.413Z,70.50
2018-04-22T07:37:41.317Z,70.89
2018-04-22T07:38:41.323Z,70.89
2018-04-22T07:39:41.269Z,71.47
2018-04-22T07:40:41.374Z,71.66
2018-04-22T07:41:41.223Z,72.34
2018-04-22T07:42:41.194Z,72.92
2018-04-22T07:43:41.187Z,73.21
2018-04-22T07:44:41.140Z,73.50
2018-04-22T07:45:41.160Z,73.47
2018-04-22T07:46:41.195Z,74.28
2018-04-22T07:47:41.065Z,74.66
2018-04-22T07:48:41.029Z,74.57
2018-04-22T07:49:41.026Z,75.05
2018-04-22T07:50:40.985Z,75.24
2018-04-22T07:51:41.076Z,74.76
2018-04-22T07:52:40.920Z,74.18
2018-04-22T07:53:40.946Z,72.53
2018-04-22T07:54:40.886Z,72.83
2018-04-22T07:55:40.865Z,73.50
2018-04-22T07:56:40.920Z,74.38
2018-04-22T07:57:40.797Z,74.57
2018-04-22T07:58:40.768Z,75.11
2018-04-22T07:59:40.747Z,75.15
2018-04-22T08:00:40.757Z,75.05
2018-04-22T08:01:40.738Z,75.21
2018-04-22T08:02:40.670Z,75.44
2018-04-22T08:03:40.640Z,75.63
2018-04-22T08:04:40.621Z,76.41
2018-04-22T08:05:40.583Z,76.18
2018-04-22T08:06:40.676Z,76.99
2018-04-22T08:07:40.539Z,76.99
2018-04-22T08:08:40.528Z,77.09
2018-04-22T08:09:40.500Z,75.79
2018-04-22T08:10:40.443Z,75.73
2018-04-22T08:11:40.434Z,75.34
2018-04-22T08:12:40.479Z,74.66
2018-04-22T08:13:40.379Z,73.79
2018-04-22T08:14:40.360Z,74.28
2018-04-22T08:15:40.331Z,75.02
2018-04-22T08:16:40.310Z,74.73
2018-04-22T08:17:40.292Z,74.73
2018-04-22T08:18:40.311Z,74.53
2018-04-22T08:19:40.214Z,73.37
2018-04-22T08:20:40.190Z,72.60
2018-04-22T08:21:40.160Z,72.60
2018-04-22T08:22:40.143Z,72.02
2018-04-22T08:23:40.165Z,72.08
2018-04-22T08:24:40.152Z,72.27
2018-04-22T08:25:40.059Z,72.02
2018-04-22T08:26:40.053Z,72.08
2018-04-22T08:27:40.073Z,72.08
2018-04-22T08:28:39.991Z,72.11
2018-04-22T08:29:40.009Z,71.98
2018-04-22T08:30:39.936Z,72.75
2018-04-22T08:31:39.971Z,72.46
2018-04-22T08:32:39.885Z,72.56
2018-04-22T08:33:39.868Z,73.14
2018-04-22T08:34:39.942Z,72.66
2018-04-22T08:35:39.789Z,72.02
2018-04-22T08:36:39.759Z,72.21
2018-04-22T08:37:39.747Z,72.17
2018-04-22T08:38:39.763Z,71.92
2018-04-22T08:39:39.746Z,71.92
2018-04-22T08:40:39.682Z,71.98
2018-04-22T08:41:39.630Z,72.98
2018-04-22T08:42:39.611Z,72.27
2018-04-22T08:43:39.587Z,73.08
2018-04-22T08:44:39.618Z,72.85
2018-04-22T08:45:39.544Z,73.04
2018-04-22T08:46:39.500Z,73.33
2018-04-22T08:47:39.473Z,72.27
2018-04-22T08:48:39.458Z,73.14
2018-04-22T08:49:39.413Z,72.36
2018-04-22T08:50:39.526Z,71.78
2018-04-22T08:51:39.386Z,72.56
2018-04-22T08:52:39.352Z,72.46
2018-04-22T08:53:39.330Z,72.85
2018-04-22T08:54:39.290Z,71.98
2018-04-22T08:55:39.270Z,72.27
2018-04-22T08:56:39.388Z,71.69
2018-04-22T08:57:39.225Z,71.98
2018-04-22T08:58:39.176Z,71.98
2018-04-22T08:59:39.173Z,72.27
2018-04-22T09:00:39.151Z,72.17
2018-04-22T09:01:39.211Z,72.56
2018-04-22T09:02:39.108Z,72.27
2018-04-22T09:03:39.048Z,72.27
2018-04-22T09:04:39.078Z,72.36
2018-04-22T09:05:39.013Z,72.08
2018-04-22T09:06:39.068Z,71.98
2018-04-22T09:07:39.029Z,72.08
2018-04-22T09:08:38.933Z,72.75
2018-04-22T09:09:38.909Z,72.27
2018-04-22T09:10:38.872Z,72.36
2018-04-22T09:11:38.897Z,72.66
2018-04-22T09:12:38.816Z,72.75
2018-04-22T09:13:38.794Z,72.66
2018-04-22T09:14:38.764Z,72.66
2018-04-22T09:15:38.741Z,73.14
2018-04-22T09:16:38.828Z,72.95
2018-04-22T09:17:38.712Z,73.33
2018-04-22T09:18:38.656Z,72.95
2018-04-22T09:19:38.627Z,72.75
2018-04-22T09:20:38.607Z,72.91
2018-04-22T09:21:38.660Z,72.46
2018-04-22T09:22:38.549Z,73.24
2018-04-22T09:23:38.532Z,73.04
2018-04-22T09:24:38.504Z,73.14
2018-04-22T09:25:38.489Z,72.91
2018-04-22T09:26:38.448Z,73.10
2018-04-22T09:27:38.491Z,73.10
2018-04-22T09:28:38.385Z,73.39
2018-04-22T09:29:38.365Z,73.20
2018-04-22T09:30:38.331Z,73.30
2018-04-22T09:31:38.317Z,73.30
2018-04-22T09:32:38.295Z,73.30
2018-04-22T09:33:38.368Z,73.68
2018-04-22T09:34:38.237Z,74.07
2018-04-22T09:35:38.195Z,74.27
2018-04-22T09:36:38.179Z,74.55
2018-04-22T09:37:38.160Z,74.55
2018-04-22T09:38:38.164Z,74.27
2018-04-22T09:39:38.090Z,74.55
2018-04-22T09:40:38.060Z,74.36
2018-04-22T09:41:38.070Z,74.79
2018-04-22T09:42:38.011Z,74.27
2018-04-22T09:43:38.036Z,75.23
2018-04-22T09:44:37.958Z,75.52
2018-04-22T09:45:37.922Z,75.43
2018-04-22T09:46:37.918Z,75.52
2018-04-22T09:47:37.931Z,75.62
2018-04-22T09:48:37.898Z,76.01
2018-04-22T09:49:37.822Z,76.10
2018-04-22T09:50:37.793Z,75.91
2018-04-22T09:51:37.796Z,76.10
2018-04-22T09:52:37.759Z,76.39
2018-04-22T09:53:37.835Z,76.20
2018-04-22T09:54:37.699Z,75.71
2018-04-22T09:55:37.709Z,76.39
2018-04-22T09:56:37.650Z,76.01
2018-04-22T09:57:37.613Z,76.10
2018-04-22T09:58:37.635Z,76.01
2018-04-22T09:59:37.565Z,75.71
2018-04-22T10:00:37.519Z,76.01
2018-04-22T10:01:37.505Z,76.10
2018-04-22T10:02:37.495Z,76.20
2018-04-22T10:03:37.444Z,76.29
2018-04-22T10:04:37.529Z,75.81
2018-04-22T10:05:37.385Z,75.81
2018-04-22T10:06:37.358Z,75.71
2018-04-22T10:07:37.332Z,76.20
2018-04-22T10:08:37.307Z,76.20
2018-04-22T10:09:37.306Z,76.01
2018-04-22T10:10:37.308Z,76.29
2018-04-22T10:11:37.239Z,76.59
2018-04-22T10:12:37.286Z,76.29
2018-04-22T10:13:37.238Z,76.10
2018-04-22T10:14:37.199Z,75.71
2018-04-22T10:15:37.264Z,75.04
2018-04-22T10:16:37.095Z,75.52
2018-04-22T10:17:37.075Z,76.29
2018-04-22T10:18:37.056Z,76.01
2018-04-22T10:19:37.030Z,75.43
2018-04-22T10:20:37.073Z,75.62
2018-04-22T10:21:36.959Z,75.52
2018-04-22T10:22:36.949Z,76.20
2018-04-22T10:23:36.909Z,76.04
2018-04-22T10:24:36.911Z,76.24
2018-04-22T10:25:36.967Z,76.33
2018-04-22T10:26:36.815Z,76.39
2018-04-22T10:27:36.793Z,76.49
2018-04-22T10:28:36.774Z,76.49
2018-04-22T10:29:36.749Z,76.97
2018-04-22T10:30:36.782Z,77.07
2018-04-22T10:31:36.690Z,77.55
2018-04-22T10:32:36.696Z,77.55
2018-04-22T10:33:36.652Z,77.65
2018-04-22T10:34:36.633Z,77.45
2018-04-22T10:35:36.693Z,77.65
2018-04-22T10:36:36.562Z,76.39
2018-04-22T10:37:36.497Z,76.33
2018-04-22T10:38:36.506Z,75.62
2018-04-22T10:39:36.490Z,75.33
2018-04-22T10:40:36.455Z,75.71
2018-04-22T10:41:36.583Z,75.71
2018-04-22T10:42:36.405Z,75.62
2018-04-22T10:43:36.382Z,76.49
2018-04-22T10:44:36.362Z,76.20
2018-04-22T10:45:36.318Z,76.68
2018-04-22T10:46:36.305Z,76.59
2018-04-22T10:47:36.375Z,76.68
2018-04-22T10:48:36.259Z,76.01
2018-04-22T10:49:36.215Z,75.81
2018-04-22T10:50:36.177Z,76.10
2018-04-22T10:51:36.165Z,76.29
2018-04-22T10:52:36.223Z,76.10
2018-04-22T10:53:36.096Z,76.20
2018-04-22T10:54:36.077Z,76.87
2018-04-22T10:55:36.042Z,76.78
2018-04-22T10:56:36.026Z,76.49
2018-04-22T10:57:36.177Z,76.59
2018-04-22T10:58:35.957Z,76.39
2018-04-22T10:59:35.942Z,76.29
2018-04-22T11:00:35.915Z,76.49
2018-04-22T11:01:35.890Z,76.68
2018-04-22T11:02:36.012Z,76.78
2018-04-22T11:03:35.836Z,76.59
2018-04-22T11:04:35.822Z,76.39
2018-04-22T11:05:35.774Z,76.49
2018-04-22T11:06:35.968Z,76.39
2018-04-22T11:07:35.837Z,76.68
2018-04-22T11:08:35.714Z,76.59
2018-04-22T11:09:35.692Z,76.59
2018-04-22T11:10:35.679Z,76.78
2018-04-22T11:11:35.611Z,76.68
2018-04-22T11:12:35.602Z,77.26
2018-04-22T11:13:36.161Z,77.36
2018-04-22T11:14:35.552Z,77.07
2018-04-22T11:15:35.971Z,77.36
2018-04-22T11:16:35.477Z,77.26
2018-04-22T11:17:35.473Z,77.36
2018-04-22T11:18:35.444Z,77.75
2018-04-22T11:19:35.550Z,77.55
2018-04-22T11:20:35.374Z,77.45
2018-04-22T11:21:35.347Z,77.65
2018-04-22T11:22:35.333Z,77.84
2018-04-22T11:23:37.513Z,78.23
2018-04-22T11:24:35.267Z,78.03
2018-04-22T11:25:35.377Z,78.13
2018-04-22T11:26:35.208Z,78.23
2018-04-22T11:27:35.202Z,78.71
2018-04-22T11:28:35.154Z,78.81
2018-04-22T11:29:35.130Z,78.81
2018-04-22T11:30:35.305Z,79.39
2018-04-22T11:31:35.095Z,79.68
2018-04-22T11:32:35.067Z,79.68
2018-04-22T11:33:35.559Z,79.87
2018-04-22T11:34:35.074Z,79.49
2018-04-22T11:35:35.120Z,79.87
2018-04-22T11:36:34.974Z,80.26
2018-04-22T11:37:34.900Z,79.78
2018-04-22T11:38:34.897Z,79.97
2018-04-22T11:39:35.494Z,80.55
2018-04-22T11:40:34.938Z,80.07
2018-04-22T11:41:34.828Z,80.46
2018-04-22T11:42:34.781Z,80.74
2018-04-22T11:43:34.762Z,81.42
2018-04-22T11:44:37.170Z,81.56
2018-04-22T11:45:36.731Z,81.81
2018-04-22T11:46:34.678Z,81.95
2018-04-22T11:47:34.640Z,82.14
2018-04-22T11:48:34.625Z,82.33
2018-04-22T11:49:35.269Z,83.01
2018-04-22T11:50:34.896Z,82.62
2018-04-22T11:51:34.634Z,83.20
2018-04-22T11:52:34.529Z,83.49
2018-04-22T11:53:34.538Z,83.88
2018-04-22T11:54:36.657Z,84.36
2018-04-22T11:55:34.424Z,84.17
2018-04-22T11:56:36.280Z,84.46
2018-04-22T11:57:34.440Z,84.50
2018-04-22T11:58:37.011Z,84.50
2018-04-22T11:59:34.333Z,84.69
2018-04-22T12:00:34.309Z,85.47
2018-04-22T12:01:34.312Z,86.73
2018-04-22T12:02:34.287Z,86.92
2018-04-22T12:03:34.261Z,87.54
2018-04-22T12:04:34.255Z,88.61
2018-04-22T12:05:34.164Z,87.84
2018-04-22T12:06:34.188Z,87.64
2018-04-22T12:07:34.382Z,88.71
2018-04-22T12:08:36.195Z,88.85
2018-04-22T12:09:34.056Z,91.41
2018-04-22T12:10:35.921Z,93.88
2018-04-22T12:11:35.624Z,94.27
2018-04-22T12:12:34.349Z,94.95
2018-04-22T12:13:36.196Z,95.67
2018-04-22T12:14:33.992Z,96.64
2018-04-22T12:15:33.885Z,97.42
2018-04-22T12:16:33.887Z,97.33
2018-04-22T12:17:34.828Z,97.66
2018-04-22T12:18:33.852Z,98.73
2018-04-22T12:19:33.876Z,99.12
2018-04-22T12:20:33.794Z,99.37
2018-04-22T12:21:33.891Z,99.95
2018-04-22T12:22:33.871Z,99.99
2018-04-22T12:23:33.754Z,99.99
2018-04-22T12:24:33.668Z,99.99
2018-04-22T12:25:35.122Z,99.99
2018-04-22T12:26:33.598Z,99.99
2018-04-22T12:27:33.604Z,99.99
2018-04-22T12:28:33.650Z,99.99
2018-04-22T12:29:33.545Z,99.99
2018-04-22T12:30:33.502Z,99.99
2018-04-22T12:31:33.481Z,99.99
2018-04-22T12:32:33.462Z,99.99
2018-04-22T12:33:33.419Z,99.99
2018-04-22T12:34:33.454Z,99.99
2018-04-22T12:35:33.420Z,99.99
2018-04-22T12:36:33.418Z,98.97
2018-04-22T12:37:33.325Z,99.41
2018-04-22T12:38:33.376Z,99.41
2018-04-22T12:39:33.379Z,98.92
2018-04-22T12:40:33.227Z,98.28
2018-04-22T12:41:33.228Z,97.64
2018-04-22T12:42:33.194Z,96.51
2018-04-22T12:43:33.173Z,95.72
2018-04-22T12:44:33.210Z,96.26
2018-04-22T12:45:33.132Z,98.67
2018-04-22T12:46:33.150Z,98.72
2018-04-22T12:47:33.091Z,98.97
2018-04-22T12:48:33.069Z,99.02
2018-04-22T12:49:33.123Z,98.68
2018-04-22T12:50:33.041Z,99.99
2018-04-22T12:51:33.028Z,99.99
2018-04-22T12:52:32.980Z,99.99